Time;durP1;ratioP1;P1;durP2;ratioP2;P2;SDS_P1;SDS_P2;PMS_P1;PMS_P2;Temp;Humidity;BMP_temperature;BMP_pressure;BME280_temperature;BME280_humidity;BME280_pressure;Samples;Min_cycle;Max_cycle;Signal;HPM_P1;HPM_P2
2022/08/18 00:01:05;;;;;;;50.90;37.88;;;20.40;99.90;;;;;;7333787;19;111337;-83
2022/08/18 00:03:33;;;;;;;49.40;37.50;;;20.40;99.90;;;;;;7335068;19;114688;-83
2022/08/18 00:06:20;;;;;;;54.33;38.80;;;20.40;99.90;;;;;;7330675;19;113581;-81
2022/08/18 00:08:47;;;;;;;46.63;37.00;;;20.50;99.90;;;;;;7334201;19;111428;-82
2022/08/18 00:11:18;;;;;;;53.25;40.00;;;20.40;99.90;;;;;;7330407;19;110849;-82
2022/08/18 00:13:45;;;;;;;51.17;38.10;;;20.50;99.90;;;;;;7333649;19;110612;-82
2022/08/18 00:16:12;;;;;;;59.15;40.03;;;20.50;99.90;;;;;;7333834;19;110331;-82
2022/08/18 00:18:39;;;;;;;54.70;40.80;;;20.50;99.90;;;;;;7332724;19;113989;-81
2022/08/18 00:21:06;;;;;;;56.03;41.35;;;20.50;99.90;;;;;;7332377;19;112355;-82
2022/08/18 00:23:33;;;;;;;54.67;40.50;;;20.50;99.90;;;;;;7334014;19;111263;-82
2022/08/18 00:26:02;;;;;;;59.67;41.78;;;20.40;99.90;;;;;;7337778;19;111401;-83
2022/08/18 00:28:29;;;;;;;59.47;42.08;;;20.50;99.90;;;;;;7334159;19;111448;-83
2022/08/18 00:30:56;;;;;;;59.88;41.45;;;20.50;99.90;;;;;;7333139;19;116559;-83
2022/08/18 00:33:23;;;;;;;61.47;42.88;;;20.50;99.90;;;;;;7333927;19;111554;-84
2022/08/18 00:35:50;;;;;;;61.58;43.72;;;20.50;99.90;;;;;;7335217;19;111400;-84
2022/08/18 00:38:18;;;;;;;59.22;41.50;;;20.40;99.90;;;;;;7332775;19;112512;-82
2022/08/18 00:40:53;;;;;;;62.33;42.67;;;20.40;99.90;;;;;;7333887;19;111872;-84
2022/08/18 00:43:38;;;;;;;64.78;44.92;;;20.40;99.90;;;;;;7330932;19;112095;-83
2022/08/18 00:46:15;;;;;;;59.78;43.08;;;20.40;99.90;;;;;;7338991;19;111976;-83
2022/08/18 00:48:42;;;;;;;58.45;42.10;;;20.40;99.90;;;;;;7331970;19;111496;-83
2022/08/18 00:51:23;;;;;;;57.33;40.53;;;20.40;99.90;;;;;;7333082;19;111927;-82
2022/08/18 00:54:04;;;;;;;54.83;40.47;;;20.40;99.90;;;;;;7331032;19;111222;-83
2022/08/18 00:56:43;;;;;;;68.50;44.25;;;20.40;99.90;;;;;;7330328;19;111569;-82
2022/08/18 00:59:19;;;;;;;69.80;42.47;;;20.40;99.90;;;;;;7331040;19;110750;-81
2022/08/18 01:01:51;;;;;;;63.95;41.80;;;20.30;99.90;;;;;;7335352;19;112172;-82
2022/08/18 01:04:28;;;;;;;64.55;42.58;;;20.30;99.90;;;;;;7328737;19;111446;-83
2022/08/18 01:07:08;;;;;;;60.10;39.88;;;20.20;99.90;;;;;;7329694;19;114585;-83
2022/08/18 01:09:36;;;;;;;53.95;39.20;;;20.30;99.90;;;;;;7337261;19;111522;-83
2022/08/18 01:12:03;;;;;;;56.92;38.35;;;20.40;99.90;;;;;;7329501;19;110748;-82
2022/08/18 01:14:50;;;;;;;57.45;39.15;;;20.40;99.90;;;;;;7331846;19;115436;-83
2022/08/18 01:23:11;;;;;;;58.40;40.23;;;20.50;99.90;;;;;;7332234;19;111286;-83
2022/08/18 01:28:31;;;;;;;60.22;40.55;;;20.50;99.90;;;;;;7331125;19;112987;-83
2022/08/18 01:31:00;;;;;;;59.17;40.45;;;20.50;99.90;;;;;;7331306;19;110324;-83
2022/08/18 01:33:33;;;;;;;55.42;39.83;;;20.50;99.90;;;;;;7339630;19;113568;-83
2022/08/18 01:36:13;;;;;;;54.55;38.03;;;20.50;99.90;;;;;;7331669;19;111212;-84
2022/08/18 01:38:40;;;;;;;58.60;38.13;;;20.60;99.90;;;;;;7332726;19;114285;-83
2022/08/18 01:41:07;;;;;;;55.85;38.28;;;20.50;99.90;;;;;;7333491;19;111824;-83
2022/08/18 01:43:54;;;;;;;64.37;40.70;;;20.50;99.90;;;;;;7331360;19;113499;-83
2022/08/18 01:46:22;;;;;;;61.05;40.63;;;20.50;99.90;;;;;;7332656;19;111371;-85
2022/08/18 01:48:49;;;;;;;58.40;40.13;;;20.40;99.90;;;;;;7332764;19;113346;-83
2022/08/18 01:51:19;;;;;;;57.63;39.78;;;20.40;99.90;;;;;;7331898;19;111844;-83
2022/08/18 01:54:07;;;;;;;64.40;40.40;;;20.40;99.90;;;;;;7332385;19;111635;-83
2022/08/18 01:56:35;;;;;;;54.70;39.28;;;20.50;99.90;;;;;;7338782;19;112323;-83
2022/08/18 01:59:04;;;;;;;52.05;37.55;;;20.50;99.90;;;;;;7329327;19;114653;-84
2022/08/18 02:01:36;;;;;;;56.38;40.58;;;20.50;99.90;;;;;;7328819;19;112010;-84
2022/08/18 02:04:15;;;;;;;56.35;39.10;;;20.50;99.90;;;;;;7332913;19;112385;-84
2022/08/18 02:07:04;;;;;;;56.15;40.88;;;20.50;99.90;;;;;;7330678;19;110916;-83
2022/08/18 02:09:33;;;;;;;60.75;40.75;;;20.50;99.90;;;;;;7332862;19;111804;-82
2022/08/18 02:12:00;;;;;;;59.97;41.40;;;20.50;99.90;;;;;;7330145;19;112041;-83
2022/08/18 02:14:28;;;;;;;54.80;38.78;;;20.60;99.90;;;;;;7332852;19;111074;-82
2022/08/18 02:16:59;;;;;;;67.05;40.25;;;20.60;99.90;;;;;;7329020;19;112302;-81
2022/08/18 02:19:40;;;;;;;59.55;40.53;;;20.60;99.90;;;;;;7336461;19;111435;-81
2022/08/18 02:22:10;;;;;;;61.50;41.97;;;20.60;99.90;;;;;;7328490;19;111769;-81
2022/08/18 02:24:37;;;;;;;57.72;40.58;;;20.60;99.90;;;;;;7328549;19;111367;-82
2022/08/18 02:27:06;;;;;;;62.67;43.53;;;20.60;99.90;;;;;;7329591;19;110439;-82
2022/08/18 02:29:35;;;;;;;65.07;43.45;;;20.60;99.90;;;;;;7330630;19;111028;-81
2022/08/18 02:32:02;;;;;;;61.92;42.33;;;20.50;99.90;;;;;;7338716;19;111594;-82
2022/08/18 02:34:30;;;;;;;59.13;41.80;;;20.50;99.90;;;;;;7340488;19;110633;-81
2022/08/18 02:36:59;;;;;;;57.22;41.47;;;20.50;99.90;;;;;;7351484;19;109424;-83
2022/08/18 02:39:26;;;;;;;55.53;40.35;;;20.40;99.90;;;;;;7342415;19;111973;-80
2022/08/18 02:41:53;;;;;;;57.33;40.38;;;20.40;99.90;;;;;;7349182;19;111871;-81
2022/08/18 02:44:20;;;;;;;53.88;39.55;;;20.40;99.90;;;;;;7346503;19;111483;-81
2022/08/18 02:46:52;;;;;;;53.17;38.53;;;20.40;99.90;;;;;;7352044;19;111573;-83
2022/08/18 02:49:21;;;;;;;51.28;40.20;;;20.40;99.90;;;;;;7352067;19;111609;-83
2022/08/18 02:51:50;;;;;;;53.78;39.60;;;20.40;99.90;;;;;;7355556;19;109468;-83
2022/08/18 02:54:22;;;;;;;53.03;39.63;;;20.30;99.90;;;;;;7340961;19;110811;-83
2022/08/18 02:56:50;;;;;;;53.53;39.92;;;20.30;99.90;;;;;;7330377;19;110754;-83
2022/08/18 02:59:23;;;;;;;55.58;38.92;;;20.30;99.90;;;;;;7330591;19;111632;-84
2022/08/18 03:01:53;;;;;;;53.42;39.05;;;20.30;99.90;;;;;;7334528;19;110924;-83
2022/08/18 03:04:26;;;;;;;50.58;38.35;;;20.20;99.90;;;;;;7328872;19;111672;-84
2022/08/18 03:06:59;;;;;;;56.80;38.70;;;20.20;99.90;;;;;;7330121;19;111206;-82
2022/08/18 03:09:28;;;;;;;55.00;41.47;;;20.20;99.90;;;;;;7330431;19;110937;-83
2022/08/18 03:11:55;;;;;;;54.97;39.55;;;20.20;99.90;;;;;;7327846;19;111463;-84
2022/08/18 03:14:22;;;;;;;53.17;39.58;;;20.20;99.90;;;;;;7328116;19;111838;-82
2022/08/18 03:16:50;;;;;;;52.22;39.22;;;20.20;99.90;;;;;;7328239;19;112674;-84
2022/08/18 03:19:28;;;;;;;51.67;38.38;;;20.10;99.90;;;;;;7335029;19;110575;-83
2022/08/18 03:21:58;;;;;;;53.42;39.80;;;20.20;99.90;;;;;;7335666;19;112604;-84
2022/08/18 03:24:30;;;;;;;51.50;38.55;;;20.10;99.90;;;;;;7342318;19;110916;-84
2022/08/18 03:27:00;;;;;;;49.13;37.25;;;20.10;99.90;;;;;;7336713;19;112206;-84
2022/08/18 03:29:28;;;;;;;51.53;38.70;;;20.10;99.90;;;;;;7336131;19;110828;-84
2022/08/18 03:32:00;;;;;;;53.92;38.78;;;20.10;99.90;;;;;;7335918;19;110711;-84
2022/08/18 03:34:28;;;;;;;54.80;39.45;;;20.10;99.90;;;;;;7334451;19;111519;-84
2022/08/18 03:36:55;;;;;;;58.13;41.88;;;20.10;99.90;;;;;;7336612;19;113955;-84
2022/08/18 03:39:23;;;;;;;53.45;39.72;;;20.10;99.90;;;;;;7333971;19;111703;-82
2022/08/18 03:41:53;;;;;;;62.25;42.95;;;20.00;99.90;;;;;;7335598;19;111392;-83
2022/08/18 03:44:29;;;;;;;57.20;41.00;;;20.00;99.90;;;;;;7335755;19;111238;-84
2022/08/18 03:46:57;;;;;;;59.85;43.78;;;20.00;99.90;;;;;;7341173;19;110544;-84
2022/08/18 03:49:25;;;;;;;58.25;41.97;;;20.00;99.90;;;;;;7333803;19;112911;-80
2022/08/18 03:51:53;;;;;;;61.55;44.28;;;20.00;99.90;;;;;;7332726;19;111797;-79
2022/08/18 03:54:20;;;;;;;55.97;41.60;;;20.00;99.90;;;;;;7338018;19;111521;-80
2022/08/18 03:56:48;;;;;;;58.88;42.03;;;20.00;99.90;;;;;;7335299;19;111153;-80
2022/08/18 03:59:18;;;;;;;60.75;43.90;;;19.90;99.90;;;;;;7335223;19;111916;-80
2022/08/18 04:01:48;;;;;;;57.15;41.67;;;19.90;99.90;;;;;;7336529;19;111736;-80
2022/08/18 04:04:19;;;;;;;58.05;42.28;;;19.80;99.90;;;;;;7336105;19;111866;-80
2022/08/18 04:06:52;;;;;;;97.50;42.03;;;19.80;99.90;;;;;;7334275;19;111648;-80
2022/08/18 04:09:21;;;;;;;71.55;42.22;;;19.70;99.90;;;;;;7340115;19;111851;-80
2022/08/18 04:11:49;;;;;;;71.80;41.15;;;19.70;99.90;;;;;;7334009;19;111375;-80
2022/08/18 04:14:19;;;;;;;57.28;42.42;;;19.60;99.90;;;;;;7335248;19;114739;-80
2022/08/18 04:16:47;;;;;;;52.97;40.10;;;19.70;99.90;;;;;;7334269;19;115381;-80
2022/08/18 04:19:16;;;;;;;53.95;40.80;;;19.70;99.90;;;;;;7336025;19;111130;-80
2022/08/18 04:21:56;;;;;;;49.90;39.40;;;19.60;99.90;;;;;;7336292;19;114149;-80
2022/08/18 04:24:25;;;;;;;45.97;38.70;;;19.60;99.90;;;;;;7336149;19;112552;-80
2022/08/18 04:26:56;;;;;;;47.33;37.45;;;19.70;99.90;;;;;;7334234;19;111534;-80
2022/08/18 04:29:23;;;;;;;42.88;35.97;;;19.70;99.90;;;;;;7330480;19;112311;-80
2022/08/18 04:31:50;;;;;;;41.70;35.97;;;19.80;99.90;;;;;;7338972;19;112107;-80
2022/08/18 04:34:21;;;;;;;43.78;34.15;;;19.70;99.90;;;;;;7333911;19;113566;-80
2022/08/18 04:36:52;;;;;;;42.90;35.20;;;19.70;99.90;;;;;;7335971;19;111947;-79
2022/08/18 04:39:20;;;;;;;54.28;35.65;;;19.70;99.90;;;;;;7332321;19;111108;-80
2022/08/18 04:41:48;;;;;;;45.45;36.42;;;19.60;99.90;;;;;;7335814;19;114648;-80
2022/08/18 04:44:17;;;;;;;45.60;36.67;;;19.60;99.90;;;;;;7334603;19;111313;-79
2022/08/18 04:46:47;;;;;;;210.35;40.80;;;19.50;99.90;;;;;;7335688;19;113841;-80
2022/08/18 04:49:16;;;;;;;50.70;38.72;;;19.50;99.90;;;;;;7335562;19;113503;-79
2022/08/18 04:54:54;;;;;;;48.70;38.15;;;19.50;99.90;;;;;;7334660;19;113366;-79
2022/08/18 04:57:21;;;;;;;54.10;37.97;;;19.40;99.90;;;;;;7332856;19;112586;-80
2022/08/18 04:59:51;;;;;;;76.53;36.38;;;19.50;99.90;;;;;;7333267;19;110099;-80
2022/08/18 05:02:20;;;;;;;43.60;34.28;;;19.40;99.90;;;;;;7332792;19;110923;-80
2022/08/18 05:04:47;;;;;;;64.75;33.08;;;19.40;99.90;;;;;;7331300;19;112112;-80
2022/08/18 05:07:17;;;;;;;44.15;33.10;;;19.40;99.90;;;;;;7332008;19;110496;-80
2022/08/18 05:09:45;;;;;;;34.40;30.70;;;19.40;99.90;;;;;;7333782;19;111567;-80
2022/08/18 05:12:14;;;;;;;32.45;29.05;;;19.40;99.90;;;;;;7333569;19;110750;-80
2022/08/18 05:14:43;;;;;;;72.45;28.63;;;19.50;99.90;;;;;;7336560;19;112796;-79
2022/08/18 05:17:12;;;;;;;45.35;28.48;;;19.50;99.90;;;;;;7333537;19;112161;-80
2022/08/18 05:19:40;;;;;;;30.85;27.60;;;19.50;99.90;;;;;;7333002;19;112183;-80
2022/08/18 05:22:16;;;;;;;31.42;28.10;;;19.50;99.90;;;;;;7335720;19;111372;-80
2022/08/18 05:24:44;;;;;;;32.13;28.48;;;19.50;99.90;;;;;;7331983;19;111984;-80
2022/08/18 05:27:12;;;;;;;34.42;30.23;;;19.50;99.90;;;;;;7333828;19;112454;-81
2022/08/18 05:29:39;;;;;;;35.60;30.80;;;19.50;99.90;;;;;;7332716;19;112374;-81
2022/08/18 05:32:08;;;;;;;38.72;31.60;;;19.50;99.90;;;;;;7329032;19;111985;-80
2022/08/18 05:34:35;;;;;;;31.70;28.30;;;19.60;99.90;;;;;;7330146;19;111073;-81
2022/08/18 05:37:34;;;;;;;37.47;32.28;;;19.60;99.90;;;;;;7335963;19;112713;-80
2022/08/18 05:40:07;;;;;;;38.38;31.77;;;19.70;99.90;;;;;;7330062;19;113201;-81
2022/08/18 05:42:39;;;;;;;36.30;32.15;;;19.70;99.90;;;;;;7332460;19;111300;-80
2022/08/18 05:45:16;;;;;;;36.47;31.20;;;19.70;99.90;;;;;;7331887;19;112144;-81
2022/08/18 05:47:43;;;;;;;33.75;30.13;;;19.80;99.90;;;;;;7333098;19;112954;-80
2022/08/18 05:50:16;;;;;;;33.45;29.75;;;19.80;99.90;;;;;;7334615;19;111737;-80
2022/08/18 05:52:56;;;;;;;33.75;30.08;;;19.80;99.90;;;;;;7333378;19;111927;-80
2022/08/18 05:58:50;;;;;;;35.25;29.90;;;19.80;99.90;;;;;;7330743;19;111764;-80
2022/08/18 06:01:33;;;;;;;89.75;31.58;;;19.70;99.90;;;;;;7331903;19;113162;-80
2022/08/18 06:04:06;;;;;;;41.20;31.00;;;19.70;99.90;;;;;;7333545;19;110940;-80
2022/08/18 06:06:36;;;;;;;36.10;29.65;;;19.70;99.90;;;;;;7329249;19;110746;-79
2022/08/18 06:09:32;;;;;;;36.42;30.08;;;19.60;99.90;;;;;;7331153;19;111969;-78
2022/08/18 06:12:12;;;;;;;79.45;30.40;;;19.70;99.90;;;;;;7331608;19;111081;-78
2022/08/18 06:14:40;;;;;;;55.88;32.58;;;19.70;99.90;;;;;;7332067;19;111803;-79
2022/08/18 06:17:22;;;;;;;93.05;33.30;;;19.70;99.90;;;;;;7332031;19;113344;-79
2022/08/18 06:20:19;;;;;;;35.85;30.90;;;19.70;99.90;;;;;;7329946;19;112420;-79
2022/08/18 06:23:11;;;;;;;33.85;28.02;;;19.80;99.90;;;;;;7332814;19;111664;-79
2022/08/18 06:25:41;;;;;;;35.13;28.85;;;19.80;99.90;;;;;;7335570;19;111856;-79
2022/08/18 06:28:14;;;;;;;34.13;27.80;;;20.00;99.90;;;;;;7330410;19;111680;-79
2022/08/18 06:30:41;;;;;;;33.80;28.98;;;20.10;99.90;;;;;;7329939;19;111901;-78
2022/08/18 06:33:49;;;;;;;36.97;30.30;;;20.20;99.90;;;;;;7329032;19;115512;-79
2022/08/18 06:36:31;;;;;;;48.40;33.22;;;20.30;99.90;;;;;;7325375;19;112199;-79
2022/08/18 06:39:22;;;;;;;41.15;30.58;;;20.20;99.90;;;;;;7324475;19;111296;-79
2022/08/18 06:41:52;;;;;;;39.20;31.23;;;20.30;99.90;;;;;;7328050;19;111453;-79
2022/08/18 06:44:22;;;;;;;38.08;30.85;;;20.30;99.90;;;;;;7325714;19;111133;-79
2022/08/18 06:46:55;;;;;;;39.25;30.85;;;20.40;99.90;;;;;;7328142;19;110524;-78
2022/08/18 06:49:56;;;;;;;41.38;32.42;;;20.50;99.90;;;;;;7329300;19;115251;-78
2022/08/18 06:52:32;;;;;;;40.55;31.90;;;20.60;99.90;;;;;;7329236;19;111889;-80
2022/08/18 06:55:29;;;;;;;43.03;33.53;;;20.70;99.90;;;;;;7332833;19;111357;-79
2022/08/18 06:58:00;;;;;;;40.35;31.55;;;20.80;99.90;;;;;;7335345;19;111903;-79
2022/08/18 07:00:35;;;;;;;49.25;34.53;;;20.70;99.90;;;;;;7332933;19;112707;-79
2022/08/18 07:03:14;;;;;;;50.58;33.78;;;20.70;99.90;;;;;;7330806;19;111450;-80
2022/08/18 07:05:57;;;;;;;43.17;32.78;;;20.80;99.90;;;;;;7333422;19;112045;-79
2022/08/18 07:08:31;;;;;;;45.35;32.75;;;20.90;99.90;;;;;;7332558;19;111344;-80
2022/08/18 07:11:16;;;;;;;42.60;33.42;;;20.90;99.90;;;;;;7337440;19;110774;-81
2022/08/18 07:13:46;;;;;;;44.03;33.10;;;21.00;99.90;;;;;;7334740;19;110817;-81
2022/08/18 07:16:33;;;;;;;42.78;33.22;;;21.00;99.90;;;;;;7335922;19;113477;-81
2022/08/18 07:19:28;;;;;;;40.80;33.08;;;21.10;99.90;;;;;;7334165;19;115589;-81
2022/08/18 07:22:13;;;;;;;45.65;35.10;;;21.10;99.90;;;;;;7337411;19;111340;-80
2022/08/18 07:24:53;;;;;;;43.00;32.42;;;21.30;99.90;;;;;;7335985;19;112171;-81
2022/08/18 07:27:42;;;;;;;41.10;32.30;;;21.30;99.90;;;;;;7336005;19;111948;-80
2022/08/18 07:30:23;;;;;;;47.60;34.83;;;21.40;99.90;;;;;;7337811;19;111120;-80
2022/08/18 07:33:18;;;;;;;47.17;34.33;;;21.40;99.90;;;;;;7336139;19;111395;-82
2022/08/18 07:35:58;;;;;;;47.10;34.00;;;21.40;99.90;;;;;;7343122;19;111819;-80
2022/08/18 07:38:35;;;;;;;45.72;33.50;;;21.40;99.90;;;;;;7336528;19;112310;-79
2022/08/18 07:41:25;;;;;;;46.55;33.15;;;21.50;99.90;;;;;;7335476;19;110892;-80
2022/08/18 07:44:00;;;;;;;44.40;32.75;;;21.60;99.90;;;;;;7336585;19;111683;-80
2022/08/18 07:46:34;;;;;;;42.47;32.42;;;21.70;99.90;;;;;;7336172;19;113186;-79
2022/08/18 07:49:05;;;;;;;42.55;31.92;;;21.70;99.90;;;;;;7336682;19;111745;-80
2022/08/18 07:51:45;;;;;;;47.00;33.90;;;21.70;99.90;;;;;;7336849;19;111259;-79
2022/08/18 07:54:12;;;;;;;49.00;33.95;;;21.70;99.90;;;;;;7334834;19;115291;-80
2022/08/18 07:57:32;;;;;;;42.80;31.60;;;21.70;99.90;;;;;;7337558;19;114735;-80
2022/08/18 08:00:28;;;;;;;41.97;31.50;;;21.90;99.90;;;;;;7336869;19;112287;-80
2022/08/18 08:03:40;;;;;;;40.55;29.45;;;22.10;99.90;;;;;;7333493;19;112027;-79
2022/08/18 08:06:22;;;;;;;44.17;31.35;;;22.10;99.90;;;;;;7331784;19;111565;-80
2022/08/18 08:09:33;;;;;;;38.72;29.67;;;22.20;99.90;;;;;;7332162;19;111415;-79
2022/08/18 08:12:22;;;;;;;36.58;28.17;;;22.20;99.90;;;;;;7333924;19;112100;-80
2022/08/18 08:14:59;;;;;;;34.28;27.67;;;22.30;99.90;;;;;;7337431;19;111568;-80
2022/08/18 08:17:39;;;;;;;;;;;22.40;99.90;;;;;;7336610;19;110671;-80
2022/08/18 08:20:40;;;;;;;38.40;30.05;;;22.30;99.90;;;;;;7339148;19;111495;-80
2022/08/18 08:23:38;;;;;;;37.20;26.83;;;22.30;99.90;;;;;;7335753;19;111509;-79
2022/08/18 08:26:16;;;;;;;32.40;25.52;;;22.50;99.90;;;;;;7342458;19;110839;-80
2022/08/18 08:29:01;;;;;;;31.08;23.85;;;22.70;99.90;;;;;;7336029;19;111523;-80
2022/08/18 08:31:57;;;;;;;34.40;27.00;;;22.80;99.90;;;;;;7335009;19;111977;-80
2022/08/18 08:34:46;;;;;;;29.10;22.08;;;22.90;99.90;;;;;;7329830;19;113619;-79
2022/08/18 08:37:23;;;;;;;32.50;24.00;;;23.00;99.90;;;;;;7332002;19;113978;-80
2022/08/18 08:39:59;;;;;;;34.08;25.42;;;23.30;99.90;;;;;;7334590;19;111768;-80
2022/08/18 08:42:51;;;;;;;30.15;24.02;;;23.40;99.90;;;;;;7334707;19;114032;-80
2022/08/18 08:45:27;;;;;;;31.77;23.88;;;23.50;99.90;;;;;;7333264;19;112246;-80
2022/08/18 08:48:02;;;;;;;29.38;23.85;;;23.60;99.90;;;;;;7328320;19;111512;-79
2022/08/18 08:50:50;;;;;;;36.70;23.77;;;23.60;99.90;;;;;;7338613;19;110903;-81
2022/08/18 08:53:25;;;;;;;30.33;23.55;;;23.60;99.90;;;;;;7330141;19;112342;-80
2022/08/18 08:56:00;;;;;;;27.13;21.83;;;23.50;99.90;;;;;;7335477;19;111740;-81
2022/08/18 08:58:55;;;;;;;27.77;21.27;;;23.60;99.90;;;;;;7332129;19;111255;-80
2022/08/18 09:01:33;;;;;;;26.50;21.58;;;23.70;99.90;;;;;;7332366;19;113446;-81
2022/08/18 09:04:13;;;;;;;27.83;22.73;;;24.00;99.90;;;;;;7333794;19;112851;-81
2022/08/18 09:07:25;;;;;;;26.23;20.67;;;24.10;99.90;;;;;;7333152;19;112037;-80
2022/08/18 09:10:11;;;;;;;22.80;20.23;;;24.00;99.90;;;;;;7329448;19;112502;-80
2022/08/18 09:13:08;;;;;;;24.58;17.17;;;23.90;99.90;;;;;;7333122;19;112665;-80
2022/08/18 09:15:50;;;;;;;19.90;17.77;;;24.10;99.90;;;;;;7333623;19;111367;-79
2022/08/18 09:18:20;;;;;;;18.30;16.38;;;24.30;99.90;;;;;;7331871;19;111450;-80
2022/08/18 09:21:11;;;;;;;18.38;14.60;;;24.40;99.90;;;;;;7326447;19;111956;-79
2022/08/18 09:23:45;;;;;;;23.15;15.82;;;24.70;99.90;;;;;;7329186;19;112332;-84
2022/08/18 09:26:23;;;;;;;19.17;15.25;;;24.80;99.90;;;;;;7333128;19;110982;-84
2022/08/18 09:28:56;;;;;;;19.05;14.63;;;24.80;99.90;;;;;;7332086;19;111095;-84
2022/08/18 09:31:25;;;;;;;17.75;13.25;;;24.80;99.90;;;;;;7330239;19;111569;-85
2022/08/18 09:34:30;;;;;;;17.58;14.23;;;24.80;99.90;;;;;;7331256;19;110749;-83
2022/08/18 09:37:46;;;;;;;13.93;12.50;;;24.90;99.90;;;;;;7338077;19;111397;-83
2022/08/18 09:43:36;;;;;;;14.68;11.63;;;25.20;99.90;;;;;;7333844;19;112233;-81
2022/08/18 09:46:05;;;;;;;14.02;12.40;;;25.30;99.90;;;;;;7330400;19;111657;-85
2022/08/18 09:48:36;;;;;;;16.17;11.35;;;25.50;99.90;;;;;;7337117;19;112011;-85
2022/08/18 09:51:14;;;;;;;14.65;12.32;;;25.60;99.90;;;;;;7334809;19;110775;-85
2022/08/18 09:53:46;;;;;;;15.70;12.57;;;25.50;99.90;;;;;;7334983;19;112161;-84
2022/08/18 09:56:16;;;;;;;15.52;11.20;;;25.30;99.90;;;;;;7334753;19;111859;-80
2022/08/18 09:59:03;;;;;;;13.38;11.68;;;25.20;99.90;;;;;;7334983;19;111532;-83
2022/08/18 10:01:39;;;;;;;16.35;11.70;;;25.00;99.90;;;;;;7335412;19;110944;-84
2022/08/18 10:04:26;;;;;;;19.05;11.82;;;25.00;99.90;;;;;;7327455;19;112731;-85
2022/08/18 10:07:18;;;;;;;14.35;12.85;;;25.10;99.90;;;;;;7332572;19;112492;-85
2022/08/18 10:10:01;;;;;;;14.68;12.63;;;25.30;99.90;;;;;;7328608;19;110893;-84
2022/08/18 10:13:21;;;;;;;15.77;12.40;;;25.40;99.90;;;;;;7327742;19;113424;-83
2022/08/18 10:16:18;;;;;;;13.10;11.80;;;25.40;99.90;;;;;;7330436;19;111524;-85
2022/08/18 10:18:52;;;;;;;14.05;12.55;;;25.30;99.90;;;;;;7330423;19;112078;-84
2022/08/18 10:21:28;;;;;;;13.63;11.88;;;25.30;99.90;;;;;;7325940;19;111465;-85
2022/08/18 10:23:57;;;;;;;;;;;25.40;99.90;;;;;;7332373;19;111530;-85
2022/08/18 10:26:50;;;;;;;10.43;9.52;;;25.20;99.90;;;;;;7341343;19;112399;-86
2022/08/18 10:29:27;;;;;;;12.45;11.15;;;25.30;99.90;;;;;;7337575;19;110339;-83
2022/08/18 10:32:04;;;;;;;10.68;9.63;;;25.50;99.90;;;;;;7337215;19;112858;-85
2022/08/18 10:34:52;;;;;;;9.35;8.52;;;25.70;99.90;;;;;;7339795;19;112345;-86
2022/08/18 10:37:37;;;;;;;12.25;8.60;;;26.00;99.90;;;;;;7341697;19;110734;-84
2022/08/18 10:40:04;;;;;;;10.13;8.88;;;26.20;99.90;;;;;;7340928;19;113283;-82
2022/08/18 10:42:47;;;;;;;9.30;8.50;;;26.40;99.90;;;;;;7339530;19;111189;-84
2022/08/18 10:45:32;;;;;;;9.10;8.20;;;26.40;99.90;;;;;;7340481;19;109386;-86
2022/08/18 10:48:03;;;;;;;8.88;8.07;;;26.30;99.90;;;;;;7340594;19;110803;-83
2022/08/18 10:51:00;;;;;;;8.77;7.97;;;26.20;99.90;;;;;;7345482;19;111230;-87
2022/08/18 10:53:57;;;;;;;8.40;7.47;;;26.20;99.90;;;;;;7336461;19;110483;-82
2022/08/18 10:56:42;;;;;;;15.27;8.60;;;26.00;99.90;;;;;;7338278;19;111217;-87
2022/08/18 10:59:42;;;;;;;13.33;10.03;;;26.00;99.90;;;;;;7339415;19;110469;-86
2022/08/18 11:02:39;;;;;;;10.63;9.57;;;26.00;99.90;;;;;;7332676;19;112576;-84
2022/08/18 11:05:11;;;;;;;11.57;9.15;;;25.90;99.90;;;;;;7339622;19;110388;-88
2022/08/18 11:07:42;;;;;;;11.13;9.88;;;25.90;99.90;;;;;;7337644;19;109739;-87
2022/08/18 11:10:39;;;;;;;9.95;9.15;;;25.90;99.90;;;;;;7339473;19;109938;-87
2022/08/18 11:13:34;;;;;;;12.13;10.98;;;26.00;99.90;;;;;;7333655;19;113596;-88
2022/08/18 11:16:29;;;;;;;10.85;9.95;;;26.00;99.90;;;;;;7334832;19;111085;-86
2022/08/18 11:19:21;;;;;;;10.05;8.13;;;26.00;99.90;;;;;;7338017;19;110511;-86
2022/08/18 11:21:51;;;;;;;10.00;9.05;;;26.10;99.90;;;;;;7335902;19;109234;-84
2022/08/18 11:24:27;;;;;;;10.13;9.20;;;26.30;99.90;;;;;;7339272;19;113714;-83
2022/08/18 11:26:54;;;;;;;10.35;9.40;;;26.50;99.90;;;;;;7339139;19;111101;-85
2022/08/18 11:29:33;;;;;;;10.07;9.13;;;26.50;99.90;;;;;;7340883;19;109862;-83
2022/08/18 11:32:13;;;;;;;10.95;9.10;;;26.50;99.90;;;;;;7339807;19;110647;-86
2022/08/18 11:34:47;;;;;;;10.43;9.35;;;26.50;99.90;;;;;;7341241;19;112427;-86
2022/08/18 11:37:40;;;;;;;9.48;8.52;;;26.50;99.90;;;;;;7338665;19;109817;-86
2022/08/18 11:40:17;;;;;;;9.60;8.80;;;26.50;99.90;;;;;;7345062;19;110066;-86
2022/08/18 11:43:27;;;;;;;11.85;8.93;;;26.50;99.90;;;;;;7340466;19;110056;-86
2022/08/18 11:46:19;;;;;;;8.32;7.63;;;26.80;99.90;;;;;;7338770;19;110506;-85
2022/08/18 11:48:54;;;;;;;8.70;7.80;;;27.20;99.40;;;;;;7334374;19;111258;-88
2022/08/18 11:51:26;;;;;;;6.90;6.30;;;27.40;99.90;;;;;;7337671;19;109525;-85
2022/08/18 11:54:20;;;;;;;10.40;5.80;;;27.60;99.40;;;;;;7334331;19;110476;-85
2022/08/18 11:56:50;;;;;;;7.85;6.95;;;27.80;99.60;;;;;;7335034;19;111157;-86
2022/08/18 11:59:25;;;;;;;7.20;6.60;;;27.90;99.60;;;;;;7335119;19;109974;-86
2022/08/18 12:02:17;;;;;;;8.90;7.07;;;28.00;98.90;;;;;;7343031;19;111906;-85
2022/08/18 12:04:53;;;;;;;8.35;7.65;;;28.20;99.00;;;;;;7337836;19;109696;-86
2022/08/18 12:07:33;;;;;;;7.95;7.35;;;28.20;98.30;;;;;;7337842;19;110120;-85
2022/08/18 12:10:16;;;;;;;7.65;7.05;;;28.10;98.80;;;;;;7335862;19;110160;-87
2022/08/18 12:12:53;;;;;;;8.88;7.15;;;28.20;97.70;;;;;;7334401;19;110538;-84
2022/08/18 12:15:33;;;;;;;8.20;7.60;;;28.10;97.40;;;;;;7336810;19;109971;-87
2022/08/18 12:18:21;;;;;;;8.25;6.85;;;28.00;96.50;;;;;;7336991;19;113361;-82
2022/08/18 12:21:00;;;;;;;8.48;7.60;;;28.00;97.20;;;;;;7336194;19;109855;-83
2022/08/18 12:23:30;;;;;;;7.90;7.28;;;27.90;96.90;;;;;;7339538;19;111261;-82
2022/08/18 12:26:10;;;;;;;10.50;7.95;;;27.80;97.60;;;;;;7337895;19;113003;-81
2022/08/18 12:28:57;;;;;;;7.43;6.72;;;27.80;97.90;;;;;;7338397;19;111393;-82
2022/08/18 12:31:27;;;;;;;8.60;7.90;;;27.80;97.70;;;;;;7339493;19;110558;-83
2022/08/18 12:34:15;;;;;;;7.53;6.77;;;27.90;97.70;;;;;;7338353;19;109640;-80
2022/08/18 12:36:51;;;;;;;;;;;27.70;97.00;;;;;;7339352;19;109742;-80
2022/08/18 12:39:18;;;;;;;7.30;6.78;;;27.70;96.20;;;;;;7339612;19;111199;-84
2022/08/18 12:41:46;;;;;;;7.47;6.32;;;27.70;97.20;;;;;;7338314;19;109526;-82
2022/08/18 12:44:14;;;;;;;6.38;5.88;;;27.90;96.80;;;;;;7340001;19;114007;-82
2022/08/18 12:46:44;;;;;;;7.47;5.68;;;28.10;97.50;;;;;;7339917;19;114664;-82
2022/08/18 12:49:19;;;;;;;12.02;6.40;;;28.50;98.00;;;;;;7344651;19;109888;-82
2022/08/18 12:51:47;;;;;;;6.55;6.00;;;28.70;97.50;;;;;;7337830;19;112251;-83
2022/08/18 12:54:17;;;;;;;7.15;6.50;;;29.10;97.00;;;;;;7338633;19;110150;-83
2022/08/18 12:56:49;;;;;;;6.95;6.05;;;29.40;97.10;;;;;;7338848;19;110567;-79
2022/08/18 12:59:17;;;;;;;5.72;5.22;;;29.70;96.80;;;;;;7338652;19;111638;-81
2022/08/18 13:01:45;;;;;;;6.40;5.80;;;29.90;97.20;;;;;;7338934;19;109605;-82
2022/08/18 13:04:12;;;;;;;7.22;6.60;;;30.10;96.60;;;;;;7339385;19;112754;-82
2022/08/18 13:06:51;;;;;;;6.15;5.55;;;30.20;95.60;;;;;;7338095;19;113367;-79
2022/08/18 13:09:29;;;;;;;5.82;5.43;;;30.40;95.60;;;;;;7336531;19;109439;-81
2022/08/18 13:12:17;;;;;;;9.65;5.60;;;30.50;95.50;;;;;;7341854;19;112246;-81
2022/08/18 13:14:46;;;;;;;5.65;5.15;;;30.60;95.60;;;;;;7338050;19;110009;-80
2022/08/18 13:17:13;;;;;;;5.63;5.13;;;30.80;95.20;;;;;;7338234;19;110484;-81
2022/08/18 13:20:20;;;;;;;6.57;5.77;;;30.90;94.80;;;;;;7337699;19;111159;-80
2022/08/18 13:22:47;;;;;;;6.05;5.30;;;30.90;94.80;;;;;;7336891;19;109531;-81
2022/08/18 13:25:16;;;;;;;6.53;5.93;;;30.80;95.20;;;;;;7338985;19;111403;-83
2022/08/18 13:28:04;;;;;;;9.18;6.18;;;30.80;93.60;;;;;;7336226;19;112564;-83